createdAt,value
2018-07-19T00:00:15.788Z,0
2018-07-19T00:00:41.926Z,0
2018-07-19T00:01:08.057Z,0
2018-07-19T00:01:34.199Z,0
2018-07-19T00:02:00.341Z,0
2018-07-19T00:02:26.488Z,0
2018-07-19T00:02:52.629Z,0
2018-07-19T00:03:18.767Z,0
2018-07-19T00:03:44.951Z,0
2018-07-19T00:04:11.042Z,0
2018-07-19T00:04:37.179Z,0
2018-07-19T00:05:03.334Z,0
2018-07-19T00:05:29.473Z,0
2018-07-19T00:05:55.606Z,0
2018-07-19T00:06:21.743Z,0
2018-07-19T00:06:47.881Z,0
2018-07-19T00:07:14.017Z,0
2018-07-19T00:07:40.159Z,0
2018-07-19T00:08:06.333Z,0
2018-07-19T00:08:32.480Z,0
2018-07-19T00:08:58.648Z,0
2018-07-19T00:09:24.787Z,0
2018-07-19T00:09:50.925Z,0
2018-07-19T00:10:17.080Z,0
2018-07-19T00:10:43.220Z,0
2018-07-19T00:11:09.351Z,0
2018-07-19T00:11:35.543Z,0
2018-07-19T00:12:01.688Z,0
2018-07-19T00:12:28.068Z,0
2018-07-19T00:12:54.212Z,0
2018-07-19T00:13:20.344Z,0
2018-07-19T00:13:46.537Z,0
2018-07-19T00:14:12.680Z,0
2018-07-19T00:14:38.817Z,0
2018-07-19T00:15:04.980Z,0
2018-07-19T00:15:31.116Z,0
2018-07-19T00:15:57.251Z,0
2018-07-19T00:16:23.412Z,0
2018-07-19T00:16:49.568Z,0
2018-07-19T00:17:15.734Z,0
2018-07-19T00:17:41.918Z,0
2018-07-19T00:18:08.071Z,0
2018-07-19T00:18:34.214Z,0
2018-07-19T00:19:00.381Z,0
2018-07-19T00:19:26.485Z,0
2018-07-19T00:19:52.622Z,0
2018-07-19T00:20:18.765Z,0
2018-07-19T00:20:44.904Z,0
2018-07-19T00:21:11.065Z,0
2018-07-19T00:21:37.206Z,0
2018-07-19T00:22:03.355Z,0
2018-07-19T00:22:29.486Z,0
2018-07-19T00:22:55.628Z,0
2018-07-19T00:23:21.763Z,0
2018-07-19T00:23:47.930Z,0
2018-07-19T00:24:14.077Z,0
2018-07-19T00:24:40.219Z,0
2018-07-19T00:25:06.361Z,0
2018-07-19T00:25:32.491Z,0
2018-07-19T00:25:58.632Z,0
2018-07-19T00:26:24.780Z,0
2018-07-19T00:26:50.917Z,0
2018-07-19T00:27:17.076Z,0
2018-07-19T00:27:43.220Z,0
2018-07-19T00:28:09.376Z,0
2018-07-19T00:28:35.562Z,0
2018-07-19T00:29:01.701Z,0
2018-07-19T00:29:27.837Z,0
2018-07-19T00:29:53.973Z,0
2018-07-19T00:30:20.114Z,0
2018-07-19T00:30:46.273Z,0
2018-07-19T00:31:12.441Z,0
2018-07-19T00:31:38.583Z,0
2018-07-19T00:32:04.721Z,0
2018-07-19T00:32:30.855Z,0
2018-07-19T00:32:56.994Z,0
2018-07-19T00:33:23.124Z,0
2018-07-19T00:33:49.277Z,0
2018-07-19T00:34:15.429Z,0
2018-07-19T00:34:41.566Z,0
2018-07-19T00:35:07.722Z,0
2018-07-19T00:35:33.859Z,0
2018-07-19T00:36:00.002Z,0
2018-07-19T00:36:26.140Z,0
2018-07-19T00:36:52.309Z,0
2018-07-19T00:37:18.449Z,0
2018-07-19T00:37:44.575Z,0
2018-07-19T00:38:10.721Z,0
2018-07-19T00:38:36.873Z,0
2018-07-19T00:39:03.011Z,0
2018-07-19T00:39:29.231Z,0
2018-07-19T00:39:55.370Z,0
2018-07-19T00:40:21.524Z,0
2018-07-19T00:40:47.670Z,0
2018-07-19T00:41:13.936Z,0
2018-07-19T00:41:40.094Z,0
2018-07-19T00:42:06.308Z,0
2018-07-19T00:42:32.448Z,0
2018-07-19T00:42:58.587Z,0
2018-07-19T00:43:24.724Z,0
2018-07-19T00:43:50.878Z,0
2018-07-19T00:44:17.019Z,0
2018-07-19T00:44:43.155Z,0
2018-07-19T00:45:09.327Z,0
2018-07-19T00:45:35.467Z,0
2018-07-19T00:46:01.607Z,0
2018-07-19T00:46:27.737Z,0
2018-07-19T00:46:53.875Z,0
2018-07-19T00:47:20.019Z,0
2018-07-19T00:47:46.153Z,0
2018-07-19T00:48:12.292Z,0
2018-07-19T00:48:38.429Z,0
2018-07-19T00:49:04.571Z,0
2018-07-19T00:49:30.712Z,0
2018-07-19T00:49:56.847Z,0
2018-07-19T00:50:22.983Z,0
2018-07-19T00:50:49.143Z,0
2018-07-19T00:51:15.278Z,0
2018-07-19T00:51:42.032Z,0
2018-07-19T00:52:08.164Z,0
2018-07-19T00:52:34.308Z,0
2018-07-19T00:53:00.445Z,0
2018-07-19T00:53:26.579Z,0
2018-07-19T00:53:52.715Z,0
2018-07-19T00:54:18.846Z,0
2018-07-19T00:54:44.988Z,0
2018-07-19T00:55:11.125Z,0
2018-07-19T00:55:37.266Z,0
2018-07-19T00:56:03.435Z,0
2018-07-19T00:56:29.571Z,0
2018-07-19T00:56:55.736Z,0
2018-07-19T00:57:21.892Z,0
2018-07-19T00:57:48.026Z,0
2018-07-19T00:58:14.171Z,0
2018-07-19T00:58:40.309Z,0
2018-07-19T00:59:06.478Z,0
2018-07-19T00:59:32.647Z,0
2018-07-19T00:59:58.787Z,0
2018-07-19T01:00:24.923Z,0
2018-07-19T01:00:51.087Z,0
2018-07-19T01:01:17.222Z,0
2018-07-19T01:01:43.359Z,0
2018-07-19T01:02:09.523Z,0
2018-07-19T01:02:35.663Z,0
2018-07-19T01:03:01.801Z,0
2018-07-19T01:03:27.941Z,0
2018-07-19T01:03:54.074Z,0
2018-07-19T01:04:20.209Z,0
2018-07-19T01:04:46.383Z,0
2018-07-19T01:05:12.518Z,0
2018-07-19T01:05:38.674Z,0
2018-07-19T01:06:04.813Z,0
2018-07-19T01:06:30.952Z,0
2018-07-19T01:06:57.089Z,0
2018-07-19T01:07:23.236Z,0
2018-07-19T01:07:49.369Z,0
2018-07-19T01:08:15.509Z,0
2018-07-19T01:08:41.647Z,0
2018-07-19T01:09:07.787Z,0
2018-07-19T01:09:33.921Z,0
2018-07-19T01:10:00.057Z,0
2018-07-19T01:10:26.199Z,0
2018-07-19T01:10:52.333Z,0
2018-07-19T01:11:18.474Z,0
2018-07-19T01:11:44.611Z,0
2018-07-19T01:12:10.781Z,0
2018-07-19T01:12:36.918Z,0
2018-07-19T01:13:03.061Z,0
2018-07-19T01:13:29.198Z,0
2018-07-19T01:13:55.343Z,0
2018-07-19T01:14:21.482Z,0
2018-07-19T01:14:47.624Z,0
2018-07-19T01:15:13.772Z,0
2018-07-19T01:15:39.915Z,0
2018-07-19T01:16:06.064Z,0
2018-07-19T01:16:32.254Z,0
2018-07-19T01:16:58.398Z,0
2018-07-19T01:17:24.534Z,0
2018-07-19T01:17:50.701Z,0
2018-07-19T01:18:16.829Z,0
2018-07-19T01:18:42.997Z,0
2018-07-19T01:19:09.126Z,0
2018-07-19T01:19:35.268Z,0
2018-07-19T01:20:01.405Z,0
2018-07-19T01:20:27.575Z,0
2018-07-19T01:20:53.705Z,0
2018-07-19T01:21:19.883Z,0
2018-07-19T01:21:46.018Z,0
2018-07-19T01:22:12.177Z,0
2018-07-19T01:22:38.320Z,0
2018-07-19T01:23:04.461Z,0
2018-07-19T01:23:30.600Z,0
2018-07-19T01:23:56.778Z,0
2018-07-19T01:24:22.916Z,0
2018-07-19T01:24:49.057Z,0
2018-07-19T01:25:15.200Z,0
2018-07-19T01:25:41.336Z,0
2018-07-19T01:26:07.475Z,0
2018-07-19T01:26:33.612Z,0
2018-07-19T01:26:59.799Z,0
2018-07-19T01:27:25.959Z,0
2018-07-19T01:27:52.097Z,0
2018-07-19T01:28:18.235Z,0
2018-07-19T01:28:44.373Z,0
2018-07-19T01:29:10.516Z,0
2018-07-19T01:29:36.704Z,0
2018-07-19T01:30:02.867Z,0
2018-07-19T01:30:29.033Z,0
2018-07-19T01:30:55.169Z,0
2018-07-19T01:31:21.311Z,0
2018-07-19T01:31:47.444Z,0
2018-07-19T01:32:13.588Z,0
2018-07-19T01:32:39.730Z,0
2018-07-19T01:33:05.888Z,0
2018-07-19T01:33:32.023Z,0
2018-07-19T01:33:58.187Z,0
2018-07-19T01:34:24.325Z,0
2018-07-19T01:34:50.464Z,0
2018-07-19T01:35:16.608Z,0
2018-07-19T01:35:42.744Z,0
2018-07-19T01:36:08.887Z,0
2018-07-19T01:36:35.028Z,0
2018-07-19T01:37:01.186Z,0
2018-07-19T01:37:27.352Z,0
2018-07-19T01:37:53.516Z,0
2018-07-19T01:38:19.654Z,0
2018-07-19T01:38:45.793Z,0
2018-07-19T01:39:11.934Z,0
2018-07-19T01:39:38.071Z,0
2018-07-19T01:40:04.211Z,0
2018-07-19T01:40:30.382Z,0
2018-07-19T01:40:56.518Z,0
2018-07-19T01:41:22.663Z,0
2018-07-19T01:41:48.796Z,0
2018-07-19T01:42:14.953Z,0
2018-07-19T01:42:41.095Z,0
2018-07-19T01:43:07.258Z,0
2018-07-19T01:43:33.397Z,0
2018-07-19T01:43:59.558Z,0
2018-07-19T01:44:25.692Z,0
2018-07-19T01:44:51.845Z,0
2018-07-19T01:45:17.972Z,0
2018-07-19T01:45:44.110Z,0
2018-07-19T01:46:10.246Z,0
2018-07-19T01:46:36.390Z,0
2018-07-19T01:47:02.528Z,0
2018-07-19T01:47:28.663Z,0
2018-07-19T01:47:54.807Z,0
2018-07-19T01:48:20.967Z,0
2018-07-19T01:48:47.112Z,0
2018-07-19T01:49:13.279Z,0
2018-07-19T01:49:39.415Z,0
2018-07-19T01:50:05.580Z,0
2018-07-19T01:50:31.717Z,0
2018-07-19T01:50:57.855Z,0
2018-07-19T01:51:23.986Z,0
2018-07-19T01:51:50.153Z,0
2018-07-19T01:52:16.287Z,0
2018-07-19T01:52:42.423Z,0
2018-07-19T01:53:08.580Z,0
2018-07-19T01:53:34.720Z,0
2018-07-19T01:54:00.884Z,0
2018-07-19T01:54:27.026Z,0
2018-07-19T01:54:53.161Z,0
2018-07-19T01:55:19.294Z,0
2018-07-19T01:55:45.448Z,0
2018-07-19T01:56:11.616Z,0
2018-07-19T01:56:37.746Z,0
2018-07-19T01:57:03.912Z,0
2018-07-19T01:57:30.050Z,0
2018-07-19T01:57:56.194Z,0
2018-07-19T01:58:22.336Z,0
2018-07-19T01:58:48.473Z,0
2018-07-19T01:59:14.619Z,0
2018-07-19T01:59:40.754Z,0
2018-07-19T02:00:06.910Z,0
2018-07-19T02:00:33.044Z,0
2018-07-19T02:00:59.181Z,0
2018-07-19T02:01:25.365Z,0
2018-07-19T02:01:51.459Z,0
2018-07-19T02:02:17.601Z,0
2018-07-19T02:02:43.735Z,0
2018-07-19T02:03:09.879Z,0
2018-07-19T02:03:36.016Z,0
2018-07-19T02:04:02.151Z,0
2018-07-19T02:04:28.291Z,0
2018-07-19T02:04:54.419Z,0
2018-07-19T02:05:20.568Z,0
2018-07-19T02:05:46.711Z,0
2018-07-19T02:06:12.863Z,0
2018-07-19T02:06:39.001Z,0
2018-07-19T02:07:05.136Z,0
2018-07-19T02:07:31.293Z,0
2018-07-19T02:07:57.436Z,0
2018-07-19T02:08:23.573Z,0
2018-07-19T02:08:49.718Z,0
2018-07-19T02:09:15.855Z,0
2018-07-19T02:09:41.991Z,0
2018-07-19T02:10:08.136Z,0
2018-07-19T02:10:34.297Z,0
2018-07-19T02:11:00.433Z,0
2018-07-19T02:11:26.599Z,0
2018-07-19T02:11:52.737Z,0
2018-07-19T02:12:18.901Z,0
2018-07-19T02:12:45.034Z,0
2018-07-19T02:13:11.177Z,0
2018-07-19T02:13:37.315Z,0
2018-07-19T02:14:03.452Z,0
2018-07-19T02:14:29.602Z,0
2018-07-19T02:14:55.740Z,0
2018-07-19T02:15:21.879Z,0
2018-07-19T02:15:48.009Z,0
2018-07-19T02:16:14.142Z,0
2018-07-19T02:16:40.310Z,0
2018-07-19T02:17:06.448Z,0
2018-07-19T02:17:32.602Z,0
2018-07-19T02:17:58.744Z,0
2018-07-19T02:18:24.877Z,0
2018-07-19T02:18:51.016Z,0
2018-07-19T02:19:17.152Z,0
2018-07-19T02:19:43.297Z,0
2018-07-19T02:20:09.433Z,0
2018-07-19T02:20:35.572Z,0
2018-07-19T02:21:01.709Z,0
2018-07-19T02:21:27.842Z,0
2018-07-19T02:21:53.974Z,0
2018-07-19T02:22:20.118Z,0
2018-07-19T02:22:46.247Z,0
2018-07-19T02:23:12.386Z,0
2018-07-19T02:23:38.525Z,0
2018-07-19T02:24:04.665Z,0
2018-07-19T02:24:30.829Z,0
2018-07-19T02:24:56.959Z,0
2018-07-19T02:25:23.103Z,0
2018-07-19T02:25:49.254Z,0
2018-07-19T02:26:15.390Z,0
2018-07-19T02:26:41.534Z,0
2018-07-19T02:27:07.672Z,0
2018-07-19T02:27:33.809Z,0
2018-07-19T02:27:59.975Z,0
2018-07-19T02:28:26.116Z,0
2018-07-19T02:28:52.252Z,0
2018-07-19T02:29:18.391Z,0
2018-07-19T02:29:44.526Z,0
2018-07-19T02:30:10.682Z,0
2018-07-19T02:30:36.845Z,0
2018-07-19T02:31:02.979Z,0
2018-07-19T02:31:29.118Z,0
2018-07-19T02:31:55.249Z,0
2018-07-19T02:32:21.393Z,0
2018-07-19T02:32:47.532Z,0
2018-07-19T02:33:13.668Z,0
2018-07-19T02:33:39.812Z,0
2018-07-19T02:34:05.944Z,0
2018-07-19T02:34:32.084Z,0
2018-07-19T02:34:58.216Z,0
2018-07-19T02:35:24.363Z,0
2018-07-19T02:35:50.516Z,0
2018-07-19T02:36:16.653Z,0
2018-07-19T02:36:42.789Z,0
2018-07-19T02:37:08.919Z,0
2018-07-19T02:37:35.056Z,0
2018-07-19T02:38:01.201Z,0
2018-07-19T02:38:27.370Z,0
2018-07-19T02:38:53.501Z,0
2018-07-19T02:39:19.644Z,0
2018-07-19T02:39:45.783Z,0
2018-07-19T02:40:11.921Z,0
2018-07-19T02:40:38.066Z,0
2018-07-19T02:41:04.204Z,0
2018-07-19T02:41:30.343Z,0
2018-07-19T02:41:56.482Z,0
2018-07-19T02:42:22.620Z,0
2018-07-19T02:42:48.759Z,0
2018-07-19T02:43:14.890Z,0
2018-07-19T02:43:41.071Z,0
2018-07-19T02:44:07.189Z,0
2018-07-19T02:44:33.345Z,0
2018-07-19T02:44:59.484Z,0
2018-07-19T02:45:25.628Z,0
2018-07-19T02:45:51.826Z,0
2018-07-19T02:46:18.190Z,0
2018-07-19T02:46:44.287Z,0
2018-07-19T02:47:10.442Z,0
2018-07-19T02:47:36.607Z,0
2018-07-19T02:48:02.759Z,0
2018-07-19T02:48:28.904Z,0
2018-07-19T02:48:55.067Z,4
2018-07-19T02:49:21.221Z,4
2018-07-19T02:49:47.357Z,4
2018-07-19T02:50:13.496Z,4
2018-07-19T02:50:39.669Z,4
2018-07-19T02:51:05.811Z,4
2018-07-19T02:51:31.969Z,4
2018-07-19T02:51:58.118Z,4
2018-07-19T02:52:24.285Z,4
2018-07-19T02:52:50.421Z,0
2018-07-19T02:53:16.557Z,0
2018-07-19T02:53:42.690Z,4
2018-07-19T02:54:08.838Z,4
2018-07-19T02:54:35.008Z,4
2018-07-19T02:55:01.189Z,4
2018-07-19T02:55:27.330Z,4
2018-07-19T02:55:53.466Z,4
2018-07-19T02:56:19.600Z,8
2018-07-19T02:56:45.742Z,4
2018-07-19T02:57:12.513Z,4
2018-07-19T02:57:38.646Z,4
2018-07-19T02:58:04.791Z,8
2018-07-19T02:58:30.970Z,8
2018-07-19T02:58:57.101Z,8
2018-07-19T02:59:23.236Z,4
2018-07-19T02:59:49.396Z,8
2018-07-19T03:00:15.538Z,8
2018-07-19T03:00:41.684Z,12
2018-07-19T03:01:07.825Z,8
2018-07-19T03:01:33.960Z,12
2018-07-19T03:02:00.130Z,12
2018-07-19T03:02:26.228Z,12
2018-07-19T03:02:52.371Z,12
2018-07-19T03:03:18.554Z,12
2018-07-19T03:03:44.688Z,12
2018-07-19T03:04:10.823Z,12
2018-07-19T03:04:37.023Z,16
2018-07-19T03:05:03.171Z,16
2018-07-19T03:05:29.387Z,20
2018-07-19T03:05:55.563Z,16
2018-07-19T03:06:21.702Z,16
2018-07-19T03:06:47.850Z,20
2018-07-19T03:07:14.055Z,20
2018-07-19T03:07:40.308Z,24
2018-07-19T03:08:06.558Z,24
2018-07-19T03:08:32.729Z,24
2018-07-19T03:08:58.924Z,28
2018-07-19T03:09:25.102Z,32
2018-07-19T03:09:51.243Z,28
2018-07-19T03:10:17.377Z,32
2018-07-19T03:10:43.517Z,36
2018-07-19T03:11:09.656Z,36
2018-07-19T03:11:35.797Z,36
2018-07-19T03:12:02.161Z,40
2018-07-19T03:12:28.320Z,40
2018-07-19T03:12:54.461Z,48
2018-07-19T03:13:20.599Z,48
2018-07-19T03:13:46.736Z,52
2018-07-19T03:14:12.876Z,56
2018-07-19T03:14:39.010Z,56
2018-07-19T03:15:05.162Z,60
2018-07-19T03:15:31.307Z,64
2018-07-19T03:15:57.452Z,68
2018-07-19T03:16:23.590Z,72
2018-07-19T03:16:49.720Z,76
2018-07-19T03:17:15.861Z,80
2018-07-19T03:17:41.997Z,80
2018-07-19T03:18:08.138Z,84
2018-07-19T03:18:34.269Z,92
2018-07-19T03:19:00.414Z,92
2018-07-19T03:19:26.584Z,100
2018-07-19T03:19:52.737Z,104
2018-07-19T03:20:18.877Z,108
2018-07-19T03:20:45.020Z,112
2018-07-19T03:21:11.153Z,120
2018-07-19T03:21:37.292Z,124
2018-07-19T03:22:03.477Z,128
2018-07-19T03:22:29.664Z,136
2018-07-19T03:22:55.803Z,140
2018-07-19T03:23:21.941Z,148
2018-07-19T03:23:48.078Z,156
2018-07-19T03:24:14.212Z,156
2018-07-19T03:24:40.378Z,168
2018-07-19T03:25:06.515Z,172
2018-07-19T03:25:32.657Z,180
2018-07-19T03:25:58.791Z,188
2018-07-19T03:26:24.957Z,196
2018-07-19T03:26:51.092Z,204
2018-07-19T03:27:17.258Z,212
2018-07-19T03:27:43.400Z,220
2018-07-19T03:28:09.539Z,228
2018-07-19T03:28:35.699Z,232
2018-07-19T03:29:01.859Z,244
2018-07-19T03:29:28.002Z,252
2018-07-19T03:29:54.134Z,264
2018-07-19T03:30:20.280Z,268
2018-07-19T03:30:46.457Z,280
2018-07-19T03:31:12.720Z,288
2018-07-19T03:31:38.792Z,300
2018-07-19T03:32:04.975Z,308
2018-07-19T03:32:31.134Z,320
2018-07-19T03:32:57.274Z,332
2018-07-19T03:33:23.407Z,340
2018-07-19T03:33:49.548Z,352
2018-07-19T03:34:15.684Z,364
2018-07-19T03:34:41.822Z,372
2018-07-19T03:35:08.009Z,384
2018-07-19T03:35:34.151Z,396
2018-07-19T03:36:00.280Z,404
2018-07-19T03:36:26.415Z,420
2018-07-19T03:36:52.556Z,432
2018-07-19T03:37:18.700Z,444
2018-07-19T03:37:44.842Z,460
2018-07-19T03:38:10.975Z,472
2018-07-19T03:38:37.112Z,488
2018-07-19T03:39:03.257Z,504
2018-07-19T03:39:29.415Z,512
2018-07-19T03:39:55.559Z,532
2018-07-19T03:40:21.723Z,548
2018-07-19T03:40:47.857Z,564
2018-07-19T03:41:13.993Z,580
2018-07-19T03:41:40.153Z,596
2018-07-19T03:42:06.315Z,616
2018-07-19T03:42:32.480Z,628
2018-07-19T03:42:58.608Z,648
2018-07-19T03:43:24.740Z,664
2018-07-19T03:43:50.882Z,680
2018-07-19T03:44:17.018Z,700
2018-07-19T03:44:43.153Z,716
2018-07-19T03:45:09.331Z,736
2018-07-19T03:45:35.471Z,752
2018-07-19T03:46:01.632Z,768
2018-07-19T03:46:27.775Z,788
2018-07-19T03:46:53.915Z,804
2018-07-19T03:47:20.076Z,824
2018-07-19T03:47:46.217Z,840
2018-07-19T03:48:12.357Z,860
2018-07-19T03:48:38.496Z,880
2018-07-19T03:49:04.644Z,900
2018-07-19T03:49:30.785Z,920
2018-07-19T03:49:56.918Z,940
2018-07-19T03:50:23.098Z,960
2018-07-19T03:50:49.198Z,980
2018-07-19T03:51:15.357Z,1000
2018-07-19T03:51:41.512Z,1024
2018-07-19T03:52:07.642Z,1044
2018-07-19T03:52:33.781Z,1068
2018-07-19T03:52:59.942Z,1092
2018-07-19T03:53:26.115Z,1112
2018-07-19T03:53:52.258Z,1136
2018-07-19T03:54:18.396Z,1160
2018-07-19T03:54:44.818Z,1180
2018-07-19T03:55:10.971Z,1204
2018-07-19T03:55:37.111Z,1228
2018-07-19T03:56:03.273Z,1248
2018-07-19T03:56:29.417Z,1272
2018-07-19T03:56:55.553Z,1296
2018-07-19T03:57:21.718Z,1320
2018-07-19T03:57:47.850Z,1344
2018-07-19T03:58:13.988Z,1368
2018-07-19T03:58:40.128Z,1392
2018-07-19T03:59:06.266Z,1420
2018-07-19T03:59:32.430Z,1444
2018-07-19T03:59:58.563Z,1472
2018-07-19T04:00:24.702Z,1496
2018-07-19T04:00:50.846Z,1528
2018-07-19T04:01:16.987Z,1552
2018-07-19T04:01:43.127Z,1580
2018-07-19T04:02:09.278Z,1608
2018-07-19T04:02:35.416Z,1636
2018-07-19T04:03:01.645Z,1664
2018-07-19T04:03:27.807Z,1692
2018-07-19T04:03:53.950Z,1720
2018-07-19T04:04:20.084Z,1752
2018-07-19T04:04:46.226Z,1776
2018-07-19T04:05:12.356Z,1804
2018-07-19T04:05:38.495Z,1832
2018-07-19T04:06:04.663Z,1860
2018-07-19T04:06:30.818Z,1888
2018-07-19T04:06:56.982Z,1916
2018-07-19T04:07:23.116Z,1944
2018-07-19T04:07:49.251Z,1972
2018-07-19T04:08:15.390Z,2000
2018-07-19T04:08:41.559Z,2024
2018-07-19T04:09:07.707Z,2056
2018-07-19T04:09:33.837Z,2084
2018-07-19T04:09:59.980Z,2112
2018-07-19T04:10:26.114Z,2140
2018-07-19T04:10:52.250Z,2168
2018-07-19T04:11:18.389Z,2200
2018-07-19T04:11:44.526Z,2232
2018-07-19T04:12:10.664Z,2260
2018-07-19T04:12:36.804Z,2292
2018-07-19T04:13:02.940Z,2324
2018-07-19T04:13:29.077Z,2356
2018-07-19T04:13:55.219Z,2388
2018-07-19T04:14:21.357Z,2424
2018-07-19T04:14:47.514Z,2456
2018-07-19T04:15:13.648Z,2488
2018-07-19T04:15:39.781Z,2524
2018-07-19T04:16:05.924Z,2556
2018-07-19T04:16:32.058Z,2588
2018-07-19T04:16:58.213Z,2620
2018-07-19T04:17:24.373Z,2652
2018-07-19T04:17:50.512Z,2684
2018-07-19T04:18:16.647Z,2712
2018-07-19T04:18:42.818Z,2744
2018-07-19T04:19:08.950Z,2776
2018-07-19T04:19:35.091Z,2804
2018-07-19T04:20:01.234Z,2836
2018-07-19T04:20:27.373Z,2860
2018-07-19T04:20:53.509Z,2896
2018-07-19T04:21:19.654Z,2928
2018-07-19T04:21:45.785Z,2960
2018-07-19T04:22:11.931Z,2992
2018-07-19T04:22:38.078Z,3028
2018-07-19T04:23:04.232Z,3060
2018-07-19T04:23:30.384Z,3100
2018-07-19T04:23:56.522Z,3136
2018-07-19T04:24:22.653Z,3176
2018-07-19T04:24:48.790Z,3212
2018-07-19T04:25:15.135Z,3248
2018-07-19T04:25:41.109Z,3292
2018-07-19T04:26:07.252Z,3328
2018-07-19T04:26:33.410Z,3364
2018-07-19T04:26:59.554Z,3400
2018-07-19T04:27:25.719Z,3440
2018-07-19T04:27:51.871Z,3476
2018-07-19T04:28:18.037Z,3512
2018-07-19T04:28:44.174Z,3548
2018-07-19T04:29:10.347Z,3584
2018-07-19T04:29:36.483Z,3620
2018-07-19T04:30:02.622Z,3660
2018-07-19T04:30:28.755Z,3696
2018-07-19T04:30:55.192Z,3736
2018-07-19T04:31:21.346Z,3780
2018-07-19T04:31:47.524Z,3824
2018-07-19T04:32:13.679Z,3868
2018-07-19T04:32:39.799Z,3916
2018-07-19T04:33:05.946Z,3956
2018-07-19T04:33:32.088Z,4000
2018-07-19T04:33:58.246Z,4048
2018-07-19T04:34:24.405Z,4092
2018-07-19T04:34:50.562Z,4136
2018-07-19T04:35:16.703Z,4180
2018-07-19T04:35:42.841Z,4224
2018-07-19T04:36:08.983Z,4264
2018-07-19T04:36:35.134Z,4300
2018-07-19T04:37:01.318Z,4340
2018-07-19T04:37:27.452Z,4384
2018-07-19T04:37:53.622Z,4420
2018-07-19T04:38:19.920Z,4460
2018-07-19T04:38:45.922Z,4496
2018-07-19T04:39:12.063Z,4536
2018-07-19T04:39:38.197Z,4568
2018-07-19T04:40:04.333Z,4608
2018-07-19T04:40:30.475Z,4644
2018-07-19T04:40:56.614Z,4676
2018-07-19T04:41:22.751Z,4712
2018-07-19T04:41:48.882Z,4752
2018-07-19T04:42:15.021Z,4792
2018-07-19T04:42:41.174Z,4836
2018-07-19T04:43:07.316Z,4872
2018-07-19T04:43:33.478Z,4912
2018-07-19T04:43:59.646Z,4952
2018-07-19T04:44:25.790Z,4988
2018-07-19T04:44:51.925Z,5032
2018-07-19T04:45:18.064Z,5064
2018-07-19T04:45:44.202Z,5100
2018-07-19T04:46:10.337Z,5132
2018-07-19T04:46:36.479Z,5164
2018-07-19T04:47:02.617Z,5196
2018-07-19T04:47:28.755Z,5224
2018-07-19T04:47:54.891Z,5252
2018-07-19T04:48:21.126Z,5288
2018-07-19T04:48:47.183Z,5320
2018-07-19T04:49:13.327Z,5352
2018-07-19T04:49:39.472Z,5396
2018-07-19T04:50:05.613Z,5444
2018-07-19T04:50:31.751Z,5492
2018-07-19T04:50:57.891Z,5548
2018-07-19T04:51:24.042Z,5596
2018-07-19T04:51:50.187Z,5648
2018-07-19T04:52:16.367Z,5692
2018-07-19T04:52:42.505Z,5732
2018-07-19T04:53:08.655Z,5772
2018-07-19T04:53:34.806Z,5836
2018-07-19T04:54:00.952Z,5908
2018-07-19T04:54:27.100Z,6132
2018-07-19T04:54:53.248Z,6676
2018-07-19T04:55:19.377Z,7132
2018-07-19T04:55:45.517Z,7448
2018-07-19T04:56:11.658Z,7424
2018-07-19T04:56:37.830Z,7148
2018-07-19T04:57:03.964Z,6940
2018-07-19T04:57:30.114Z,6808
2018-07-19T04:57:56.252Z,6752
2018-07-19T04:58:22.393Z,6740
2018-07-19T04:58:48.533Z,6736
2018-07-19T04:59:14.680Z,6736
2018-07-19T04:59:40.827Z,6744
2018-07-19T05:00:07.002Z,6752
2018-07-19T05:00:33.170Z,6760
2018-07-19T05:00:59.311Z,6772
2018-07-19T05:01:25.452Z,6792
2018-07-19T05:01:51.630Z,6808
2018-07-19T05:02:17.746Z,6832
2018-07-19T05:02:43.882Z,6864
2018-07-19T05:03:10.024Z,6892
2018-07-19T05:03:36.160Z,6912
2018-07-19T05:04:02.301Z,6940
2018-07-19T05:04:28.442Z,6968
2018-07-19T05:04:54.582Z,6996
2018-07-19T05:05:20.726Z,7024
2018-07-19T05:05:46.864Z,7040
2018-07-19T05:06:13.024Z,7064
2018-07-19T05:06:39.171Z,7100
2018-07-19T05:07:05.308Z,7136
2018-07-19T05:07:31.446Z,7184
2018-07-19T05:07:57.592Z,7228
2018-07-19T05:08:23.727Z,7268
2018-07-19T05:08:49.860Z,7308
2018-07-19T05:09:16.023Z,7352
2018-07-19T05:09:42.159Z,7392
2018-07-19T05:10:08.296Z,7424
2018-07-19T05:10:34.455Z,7448
2018-07-19T05:11:00.598Z,7480
2018-07-19T05:11:26.749Z,7508
2018-07-19T05:11:52.887Z,7540
2018-07-19T05:12:19.029Z,7572
2018-07-19T05:12:45.193Z,7600
2018-07-19T05:13:11.389Z,7636
2018-07-19T05:13:37.529Z,7668
2018-07-19T05:14:03.700Z,7708
2018-07-19T05:14:29.836Z,7744
2018-07-19T05:14:55.984Z,7780
2018-07-19T05:15:22.124Z,7820
2018-07-19T05:15:48.263Z,7856
2018-07-19T05:16:14.397Z,7896
2018-07-19T05:16:40.537Z,7936
2018-07-19T05:17:06.697Z,7980
2018-07-19T05:17:32.838Z,8020
2018-07-19T05:17:58.975Z,8064
2018-07-19T05:18:25.116Z,8108
2018-07-19T05:18:51.251Z,8148
2018-07-19T05:19:17.391Z,8196
2018-07-19T05:19:43.531Z,8240
2018-07-19T05:20:09.680Z,8288
2018-07-19T05:20:35.818Z,8328
2018-07-19T05:21:01.953Z,8384
2018-07-19T05:21:28.094Z,8424
2018-07-19T05:21:54.232Z,8476
2018-07-19T05:22:20.373Z,8528
2018-07-19T05:22:46.509Z,8580
2018-07-19T05:23:12.703Z,8640
2018-07-19T05:23:38.796Z,8696
2018-07-19T05:24:04.934Z,8752
2018-07-19T05:24:31.080Z,8812
2018-07-19T05:24:57.217Z,8868
2018-07-19T05:25:23.369Z,8924
2018-07-19T05:25:49.509Z,8980
2018-07-19T05:26:15.650Z,9044
2018-07-19T05:26:41.787Z,9100
2018-07-19T05:27:07.927Z,9156
2018-07-19T05:27:34.063Z,9224
2018-07-19T05:28:00.215Z,9288
2018-07-19T05:28:26.336Z,9352
2018-07-19T05:28:52.476Z,9424
2018-07-19T05:29:18.614Z,9496
2018-07-19T05:29:44.759Z,9572
2018-07-19T05:30:10.917Z,9648
2018-07-19T05:30:37.054Z,9716
2018-07-19T05:31:03.197Z,9788
2018-07-19T05:31:29.330Z,9860
2018-07-19T05:31:55.495Z,9928
2018-07-19T05:32:21.636Z,10004
2018-07-19T05:32:47.776Z,10084
2018-07-19T05:33:13.912Z,10176
2018-07-19T05:33:40.080Z,10272
2018-07-19T05:34:06.220Z,10376
2018-07-19T05:34:32.405Z,10468
2018-07-19T05:34:58.547Z,10552
2018-07-19T05:35:24.716Z,10620
2018-07-19T05:35:50.852Z,10676
2018-07-19T05:36:16.993Z,10728
2018-07-19T05:36:43.136Z,10764
2018-07-19T05:37:09.276Z,10788
2018-07-19T05:37:35.408Z,10808
2018-07-19T05:38:01.548Z,10816
2018-07-19T05:38:27.691Z,10820
2018-07-19T05:38:53.827Z,10828
2018-07-19T05:39:19.958Z,10852
2018-07-19T05:39:46.102Z,10884
2018-07-19T05:40:12.249Z,10928
2018-07-19T05:40:38.508Z,10988
2018-07-19T05:41:04.571Z,11060
2018-07-19T05:41:30.729Z,11156
2018-07-19T05:41:56.890Z,11248
2018-07-19T05:42:23.053Z,11344
2018-07-19T05:42:49.182Z,11448
2018-07-19T05:43:15.319Z,11564
2018-07-19T05:43:41.466Z,11696
2018-07-19T05:44:07.600Z,11840
2018-07-19T05:44:33.740Z,11980
2018-07-19T05:44:59.872Z,12140
2018-07-19T05:45:26.041Z,12308
2018-07-19T05:45:52.204Z,12500
2018-07-19T05:46:18.337Z,12712
2018-07-19T05:46:44.475Z,12916
2018-07-19T05:47:10.639Z,13148
2018-07-19T05:47:36.780Z,13388
2018-07-19T05:48:02.927Z,13620
2018-07-19T05:48:29.056Z,13824
2018-07-19T05:48:55.217Z,14016
2018-07-19T05:49:21.360Z,14208
2018-07-19T05:49:47.531Z,14412
2018-07-19T05:50:13.648Z,14612
2018-07-19T05:50:39.782Z,14788
2018-07-19T05:51:05.927Z,14932
2018-07-19T05:51:32.068Z,15060
2018-07-19T05:51:58.201Z,15164
2018-07-19T05:52:24.343Z,15268
2018-07-19T05:52:50.500Z,15376
2018-07-19T05:53:16.673Z,15480
2018-07-19T05:53:42.812Z,15528
2018-07-19T05:54:08.955Z,15568
2018-07-19T05:54:35.099Z,15612
2018-07-19T05:55:01.270Z,15664
2018-07-19T05:55:27.410Z,15708
2018-07-19T05:55:53.571Z,15772
2018-07-19T05:56:19.711Z,15832
2018-07-19T05:56:45.853Z,15876
2018-07-19T05:57:12.012Z,15940
2018-07-19T05:57:38.214Z,16020
2018-07-19T05:58:04.375Z,16100
2018-07-19T05:58:30.508Z,16196
2018-07-19T05:58:56.666Z,16272
2018-07-19T05:59:22.804Z,16384
2018-07-19T05:59:48.977Z,16536
2018-07-19T06:00:15.129Z,16676
2018-07-19T06:00:41.305Z,16820
2018-07-19T06:01:07.484Z,16968
2018-07-19T06:01:33.605Z,17092
2018-07-19T06:01:59.765Z,17168
2018-07-19T06:02:25.908Z,17216
2018-07-19T06:02:52.073Z,17268
2018-07-19T06:03:18.211Z,17236
2018-07-19T06:03:44.357Z,17144
2018-07-19T06:04:10.493Z,16988
2018-07-19T06:04:36.649Z,16796
2018-07-19T06:05:02.788Z,16564
2018-07-19T06:05:28.930Z,16256
2018-07-19T06:05:55.070Z,15948
2018-07-19T06:06:21.264Z,15720
2018-07-19T06:06:47.405Z,15548
2018-07-19T06:07:13.543Z,15456